sensor_id;sensor_type;location;lat;lon;timestamp;pressure;altitude;pressure_sealevel;temperature;humidity
14273;BME280;7220;49.450;11.052;2023-05-12T00:03:02;97942.38;;;12.73;100.00
14273;BME280;7220;49.450;11.052;2023-05-12T00:07:03;97951.34;;;12.72;100.00
14273;BME280;7220;49.450;11.052;2023-05-12T00:11:06;97948.38;;;12.77;100.00
14273;BME280;7220;49.450;11.052;2023-05-12T00:15:06;97949.34;;;12.89;100.00
14273;BME280;7220;49.450;11.052;2023-05-12T00:19:07;97942.72;;;12.94;100.00
14273;BME280;7220;49.450;11.052;2023-05-12T00:23:07;97942.72;;;12.94;100.00
14273;BME280;7220;49.450;11.052;2023-05-12T00:27:08;97949.88;;;12.94;100.00
14273;BME280;7220;49.450;11.052;2023-05-12T00:31:08;97938.78;;;12.60;100.00
14273;BME280;7220;49.450;11.052;2023-05-12T00:35:08;97943.19;;;12.61;100.00
14273;BME280;7220;49.450;11.052;2023-05-12T00:39:09;97940.00;;;12.69;100.00
14273;BME280;7220;49.450;11.052;2023-05-12T00:43:09;97941.91;;;12.67;100.00
14273;BME280;7220;49.450;11.052;2023-05-12T00:47:10;97941.16;;;12.65;100.00
14273;BME280;7220;49.450;11.052;2023-05-12T00:51:12;97937.59;;;12.78;100.00
14273;BME280;7220;49.450;11.052;2023-05-12T00:55:12;97936.31;;;12.84;100.00
14273;BME280;7220;49.450;11.052;2023-05-12T00:59:13;97933.41;;;12.74;100.00
14273;BME280;7220;49.450;11.052;2023-05-12T01:03:13;97934.91;;;12.78;100.00
14273;BME280;7220;49.450;11.052;2023-05-12T01:07:18;97936.84;;;12.89;100.00
14273;BME280;7220;49.450;11.052;2023-05-12T01:11:20;97933.97;;;12.80;100.00
14273;BME280;7220;49.450;11.052;2023-05-12T01:15:21;97925.41;;;12.74;100.00
14273;BME280;7220;49.450;11.052;2023-05-12T01:23:48;97931.22;;;12.54;100.00
14273;BME280;7220;49.450;11.052;2023-05-12T01:27:51;97921.31;;;12.56;100.00
14273;BME280;7220;49.450;11.052;2023-05-12T01:31:52;97921.00;;;12.60;100.00
14273;BME280;7220;49.450;11.052;2023-05-12T01:35:54;97925.81;;;12.68;100.00
14273;BME280;7220;49.450;11.052;2023-05-12T01:39:54;97920.28;;;12.71;100.00
14273;BME280;7220;49.450;11.052;2023-05-12T01:43:54;97921.00;;;12.60;100.00
14273;BME280;7220;49.450;11.052;2023-05-12T01:47:55;97918.22;;;12.62;100.00
14273;BME280;7220;49.450;11.052;2023-05-12T01:51:55;97918.78;;;12.67;100.00
14273;BME280;7220;49.450;11.052;2023-05-12T01:55:55;97922.72;;;12.61;100.00
14273;BME280;7220;49.450;11.052;2023-05-12T01:59:56;97912.72;;;12.65;100.00
14273;BME280;7220;49.450;11.052;2023-05-12T02:03:57;97919.94;;;12.63;100.00
14273;BME280;7220;49.450;11.052;2023-05-12T02:07:58;97919.63;;;12.68;100.00
14273;BME280;7220;49.450;11.052;2023-05-12T02:11:58;97921.25;;;12.70;100.00
14273;BME280;7220;49.450;11.052;2023-05-12T02:15:58;97917.47;;;12.60;100.00
14273;BME280;7220;49.450;11.052;2023-05-12T02:19:59;97922.03;;;12.58;100.00
14273;BME280;7220;49.450;11.052;2023-05-12T02:24:00;97926.22;;;12.62;100.00
14273;BME280;7220;49.450;11.052;2023-05-12T02:28:00;97910.88;;;12.66;100.00
14273;BME280;7220;49.450;11.052;2023-05-12T02:32:00;97917.63;;;12.71;100.00
14273;BME280;7220;49.450;11.052;2023-05-12T02:36:01;97918.59;;;12.83;100.00
14273;BME280;7220;49.450;11.052;2023-05-12T02:40:01;97915.72;;;12.86;100.00
14273;BME280;7220;49.450;11.052;2023-05-12T02:44:01;97915.28;;;12.80;100.00
14273;BME280;7220;49.450;11.052;2023-05-12T02:48:02;97917.84;;;12.81;100.00
14273;BME280;7220;49.450;11.052;2023-05-12T02:52:02;97911.88;;;12.77;100.00
14273;BME280;7220;49.450;11.052;2023-05-12T02:56:03;97907.72;;;12.73;100.00
14273;BME280;7220;49.450;11.052;2023-05-12T03:00:04;97912.09;;;12.87;100.00
14273;BME280;7220;49.450;11.052;2023-05-12T03:04:05;97896.53;;;12.81;100.00
14273;BME280;7220;49.450;11.052;2023-05-12T03:08:05;97900.91;;;12.82;100.00
14273;BME280;7220;49.450;11.052;2023-05-12T03:12:06;97902.31;;;12.88;100.00
14273;BME280;7220;49.450;11.052;2023-05-12T03:16:07;97897.63;;;12.91;100.00
14273;BME280;7220;49.450;11.052;2023-05-12T03:20:07;97906.44;;;12.92;100.00
14273;BME280;7220;49.450;11.052;2023-05-12T03:24:07;97905.19;;;13.10;100.00
14273;BME280;7220;49.450;11.052;2023-05-12T03:28:08;97898.91;;;13.12;100.00
14273;BME280;7220;49.450;11.052;2023-05-12T03:32:08;97899.00;;;13.10;100.00
14273;BME280;7220;49.450;11.052;2023-05-12T03:36:08;97910.97;;;13.04;100.00
14273;BME280;7220;49.450;11.052;2023-05-12T03:40:09;97898.28;;;13.21;100.00
14273;BME280;7220;49.450;11.052;2023-05-12T03:44:10;97900.19;;;13.19;100.00
14273;BME280;7220;49.450;11.052;2023-05-12T03:48:11;97893.56;;;13.12;100.00
14273;BME280;7220;49.450;11.052;2023-05-12T03:52:11;97901.91;;;13.20;100.00
14273;BME280;7220;49.450;11.052;2023-05-12T03:56:12;97901.78;;;13.21;100.00
14273;BME280;7220;49.450;11.052;2023-05-12T04:00:14;97909.34;;;13.15;100.00
14273;BME280;7220;49.450;11.052;2023-05-12T04:04:15;97899.75;;;13.25;100.00
14273;BME280;7220;49.450;11.052;2023-05-12T04:08:15;97897.31;;;13.22;100.00
14273;BME280;7220;49.450;11.052;2023-05-12T04:12:16;97910.22;;;13.28;100.00
14273;BME280;7220;49.450;11.052;2023-05-12T04:16:16;97897.84;;;13.14;100.00
14273;BME280;7220;49.450;11.052;2023-05-12T04:20:16;97901.91;;;13.07;100.00
14273;BME280;7220;49.450;11.052;2023-05-12T04:24:16;97906.69;;;13.15;100.00
14273;BME280;7220;49.450;11.052;2023-05-12T04:28:17;97906.28;;;13.21;100.00
14273;BME280;7220;49.450;11.052;2023-05-12T04:32:17;97925.69;;;13.23;100.00
14273;BME280;7220;49.450;11.052;2023-05-12T04:36:18;97918.00;;;13.31;100.00
14273;BME280;7220;49.450;11.052;2023-05-12T04:40:18;97921.34;;;13.48;100.00
14273;BME280;7220;49.450;11.052;2023-05-12T04:44:19;97911.75;;;13.45;100.00
14273;BME280;7220;49.450;11.052;2023-05-12T04:48:21;97928.28;;;13.37;100.00
14273;BME280;7220;49.450;11.052;2023-05-12T04:52:21;97917.28;;;13.29;100.00
14273;BME280;7220;49.450;11.052;2023-05-12T04:56:21;97922.94;;;13.50;100.00
14273;BME280;7220;49.450;11.052;2023-05-12T05:00:22;97920.91;;;13.28;100.00
14273;BME280;7220;49.450;11.052;2023-05-12T05:04:22;97919.63;;;13.47;100.00
14273;BME280;7220;49.450;11.052;2023-05-12T05:08:23;97924.13;;;13.59;100.00
14273;BME280;7220;49.450;11.052;2023-05-12T05:12:23;97925.41;;;13.66;100.00
14273;BME280;7220;49.450;11.052;2023-05-12T05:16:24;97927.75;;;13.58;100.00
14273;BME280;7220;49.450;11.052;2023-05-12T05:20:25;97932.25;;;13.45;100.00
14273;BME280;7220;49.450;11.052;2023-05-12T05:24:27;97938.97;;;13.37;100.00
14273;BME280;7220;49.450;11.052;2023-05-12T05:28:27;97939.06;;;13.49;100.00
14273;BME280;7220;49.450;11.052;2023-05-12T05:32:28;97936.19;;;13.52;100.00
14273;BME280;7220;49.450;11.052;2023-05-12T05:36:28;97949.75;;;13.49;100.00
14273;BME280;7220;49.450;11.052;2023-05-12T05:40:29;97936.09;;;13.66;100.00
14273;BME280;7220;49.450;11.052;2023-05-12T05:44:29;97933.69;;;13.87;100.00
14273;BME280;7220;49.450;11.052;2023-05-12T05:48:29;97948.03;;;13.86;100.00
14273;BME280;7220;49.450;11.052;2023-05-12T05:52:30;97936.75;;;14.07;100.00
14273;BME280;7220;49.450;11.052;2023-05-12T05:56:30;97937.53;;;13.96;100.00
14273;BME280;7220;49.450;11.052;2023-05-12T06:00:32;97951.84;;;13.95;100.00
14273;BME280;7220;49.450;11.052;2023-05-12T06:04:32;97950.06;;;14.20;100.00
14273;BME280;7220;49.450;11.052;2023-05-12T06:08:33;97955.34;;;14.09;100.00
14273;BME280;7220;49.450;11.052;2023-05-12T06:12:33;97947.78;;;14.40;100.00
14273;BME280;7220;49.450;11.052;2023-05-12T06:16:33;97957.38;;;14.18;100.00
14273;BME280;7220;49.450;11.052;2023-05-12T06:20:34;97961.88;;;14.04;100.00
14273;BME280;7220;49.450;11.052;2023-05-12T06:24:34;97968.13;;;14.29;100.00
14273;BME280;7220;49.450;11.052;2023-05-12T06:28:34;97968.44;;;14.25;100.00
14273;BME280;7220;49.450;11.052;2023-05-12T06:32:35;97983.03;;;14.08;100.00
14273;BME280;7220;49.450;11.052;2023-05-12T06:36:35;97981.41;;;14.18;100.00
14273;BME280;7220;49.450;11.052;2023-05-12T06:40:35;97977.91;;;14.04;100.00
14273;BME280;7220;49.450;11.052;2023-05-12T06:44:36;97979.16;;;14.12;100.00
14273;BME280;7220;49.450;11.052;2023-05-12T06:48:36;97981.13;;;14.10;100.00
14273;BME280;7220;49.450;11.052;2023-05-12T06:52:37;97985.56;;;14.22;100.00
14273;BME280;7220;49.450;11.052;2023-05-12T06:56:37;97986.78;;;14.42;100.00
14273;BME280;7220;49.450;11.052;2023-05-12T07:00:37;97986.16;;;14.39;100.00
14273;BME280;7220;49.450;11.052;2023-05-12T07:04:38;97983.78;;;14.47;100.00
14273;BME280;7220;49.450;11.052;2023-05-12T07:08:38;97995.94;;;14.51;100.00
14273;BME280;7220;49.450;11.052;2023-05-12T07:12:38;97991.00;;;14.58;100.00
14273;BME280;7220;49.450;11.052;2023-05-12T07:16:39;97986.81;;;14.66;100.00
14273;BME280;7220;49.450;11.052;2023-05-12T07:20:39;97991.84;;;14.58;100.00
14273;BME280;7220;49.450;11.052;2023-05-12T07:24:39;97990.16;;;14.57;100.00
14273;BME280;7220;49.450;11.052;2023-05-12T07:28:40;97996.84;;;14.76;100.00
14273;BME280;7220;49.450;11.052;2023-05-12T07:32:40;97989.09;;;14.84;100.00
14273;BME280;7220;49.450;11.052;2023-05-12T07:36:41;97986.69;;;14.81;100.00
14273;BME280;7220;49.450;11.052;2023-05-12T07:40:42;97996.44;;;14.93;100.00
14273;BME280;7220;49.450;11.052;2023-05-12T07:44:43;97988.56;;;14.92;100.00
14273;BME280;7220;49.450;11.052;2023-05-12T07:48:44;97994.94;;;15.02;100.00
14273;BME280;7220;49.450;11.052;2023-05-12T07:52:46;98004.00;;;15.24;100.00
14273;BME280;7220;49.450;11.052;2023-05-12T07:56:46;97998.44;;;15.38;100.00
14273;BME280;7220;49.450;11.052;2023-05-12T08:00:48;97997.06;;;15.33;100.00
14273;BME280;7220;49.450;11.052;2023-05-12T08:04:49;98004.44;;;15.53;100.00
14273;BME280;7220;49.450;11.052;2023-05-12T08:08:49;98007.84;;;15.55;100.00
14273;BME280;7220;49.450;11.052;2023-05-12T08:12:50;98011.88;;;15.61;100.00
14273;BME280;7220;49.450;11.052;2023-05-12T08:16:50;98008.94;;;15.53;100.00
14273;BME280;7220;49.450;11.052;2023-05-12T08:20:50;98003.72;;;15.74;100.00
14273;BME280;7220;49.450;11.052;2023-05-12T08:24:51;98018.84;;;15.75;100.00
14273;BME280;7220;49.450;11.052;2023-05-12T08:28:51;98005.72;;;15.83;100.00
14273;BME280;7220;49.450;11.052;2023-05-12T08:32:53;98022.97;;;15.79;100.00
14273;BME280;7220;49.450;11.052;2023-05-12T08:36:54;98017.19;;;15.85;100.00
14273;BME280;7220;49.450;11.052;2023-05-12T08:45:10;98019.38;;;16.14;100.00
14273;BME280;7220;49.450;11.052;2023-05-12T08:49:13;98014.03;;;16.14;100.00
14273;BME280;7220;49.450;11.052;2023-05-12T08:53:17;98025.22;;;16.31;100.00
14273;BME280;7220;49.450;11.052;2023-05-12T08:57:19;98028.66;;;16.10;100.00
14273;BME280;7220;49.450;11.052;2023-05-12T09:01:21;98026.56;;;16.02;100.00
14273;BME280;7220;49.450;11.052;2023-05-12T09:05:22;98044.00;;;15.85;100.00
14273;BME280;7220;49.450;11.052;2023-05-12T09:09:23;98037.09;;;15.81;100.00
14273;BME280;7220;49.450;11.052;2023-05-12T09:13:41;98039.78;;;15.81;100.00
14273;BME280;7220;49.450;11.052;2023-05-12T09:17:47;98045.22;;;15.92;100.00
14273;BME280;7220;49.450;11.052;2023-05-12T09:21:47;98052.66;;;16.12;100.00
14273;BME280;7220;49.450;11.052;2023-05-12T09:25:58;98051.31;;;16.17;100.00
14273;BME280;7220;49.450;11.052;2023-05-12T09:30:00;98043.00;;;16.20;100.00
14273;BME280;7220;49.450;11.052;2023-05-12T09:34:06;98044.00;;;16.31;99.88
14273;BME280;7220;49.450;11.052;2023-05-12T09:38:10;98043.25;;;16.51;99.64
14273;BME280;7220;49.450;11.052;2023-05-12T09:42:11;98041.28;;;16.65;98.74
14273;BME280;7220;49.450;11.052;2023-05-12T09:46:11;98048.53;;;16.85;97.66
14273;BME280;7220;49.450;11.052;2023-05-12T09:50:13;98039.16;;;17.24;95.98
14273;BME280;7220;49.450;11.052;2023-05-12T09:54:26;98030.91;;;17.48;94.91
14273;BME280;7220;49.450;11.052;2023-05-12T09:58:27;98037.59;;;17.54;95.72
14273;BME280;7220;49.450;11.052;2023-05-12T10:02:28;98028.13;;;17.80;94.71
14273;BME280;7220;49.450;11.052;2023-05-12T10:06:32;98027.19;;;18.12;93.59
14273;BME280;7220;49.450;11.052;2023-05-12T10:10:36;98017.00;;;18.16;92.53
14273;BME280;7220;49.450;11.052;2023-05-12T10:14:36;98026.81;;;18.27;91.52
14273;BME280;7220;49.450;11.052;2023-05-12T10:18:38;98020.38;;;18.49;88.88
14273;BME280;7220;49.450;11.052;2023-05-12T10:22:39;98023.97;;;18.69;88.08
14273;BME280;7220;49.450;11.052;2023-05-12T10:26:41;98024.72;;;18.81;86.11
14273;BME280;7220;49.450;11.052;2023-05-12T10:30:42;98017.06;;;18.76;84.71
14273;BME280;7220;49.450;11.052;2023-05-12T10:34:43;98031.16;;;18.59;83.98
14273;BME280;7220;49.450;11.052;2023-05-12T10:38:46;98031.84;;;18.41;83.48
14273;BME280;7220;49.450;11.052;2023-05-12T10:42:49;98038.53;;;17.95;85.01
14273;BME280;7220;49.450;11.052;2023-05-12T10:46:57;98025.38;;;17.71;85.90
14273;BME280;7220;49.450;11.052;2023-05-12T10:51:09;98038.47;;;17.85;86.14
14273;BME280;7220;49.450;11.052;2023-05-12T10:55:11;98048.59;;;17.93;86.66
14273;BME280;7220;49.450;11.052;2023-05-12T10:59:20;98042.66;;;18.20;86.63
14273;BME280;7220;49.450;11.052;2023-05-12T11:03:24;98047.44;;;18.48;86.29
14273;BME280;7220;49.450;11.052;2023-05-12T11:07:27;98039.16;;;18.80;84.83
14273;BME280;7220;49.450;11.052;2023-05-12T11:11:27;98037.59;;;18.87;85.26
14273;BME280;7220;49.450;11.052;2023-05-12T11:15:28;98032.09;;;18.89;85.03
14273;BME280;7220;49.450;11.052;2023-05-12T11:19:29;98039.69;;;19.15;84.00
14273;BME280;7220;49.450;11.052;2023-05-12T11:23:30;98037.25;;;19.31;82.87
14273;BME280;7220;49.450;11.052;2023-05-12T11:27:31;98048.16;;;19.00;84.17
14273;BME280;7220;49.450;11.052;2023-05-12T11:31:32;98051.00;;;18.99;84.30
14273;BME280;7220;49.450;11.052;2023-05-12T11:35:33;98044.59;;;18.90;84.35
14273;BME280;7220;49.450;11.052;2023-05-12T11:39:35;98045.97;;;18.84;85.17
14273;BME280;7220;49.450;11.052;2023-05-12T11:43:35;98049.91;;;18.70;85.36
14273;BME280;7220;49.450;11.052;2023-05-12T11:47:35;98060.66;;;18.60;84.37
14273;BME280;7220;49.450;11.052;2023-05-12T11:51:40;98063.31;;;18.20;86.08
